Airfield :
LOGIN :

Register | Disclaimer

   EN    FR    IT 

 










Legend :    VFR   Marginal VFR   IFR   Intensive IFR   Very Intensive IFR
Visi :
Ceiling :
>= 8 km
>= 3000ft
5 to 8 km
1000 to 3000 ft
1500m to 5 km
500 to 1000 ft
800 to 1500m
200 to 500 ft
< 800m
< 200 ft
Symbols :   Thunderstorms  Fog  Heavy snow  Heavy precipitations  Wind > 20 kt
SIGMETs :     Misc.  Thunderstorms  Icing  Turbulence  Mountain Waves  Volcanic Ashes






- Airport Elevation : 529 ft
- IATA code : CHR


LFLX - Chateauroux

CURRENT METAR :
  • 200500Z AUTO 19007KT 9999 OVC039 06/05 Q1023 TEMPO BKN006

EXPIRED METARs :
  • 200430Z AUTO 18008KT 9999 BKN038 05/05 Q1023 TEMPO BKN006
  • 200400Z AUTO 18007KT CAVOK 05/04 Q1023 TEMPO BKN006
  • 200330Z AUTO 18006KT CAVOK 05/04 Q1023 TEMPO BKN006
  • 200300Z AUTO 20005KT 9999 FEW013 05/05 Q1024 TEMPO BKN006
  • 200230Z AUTO 19005KT 9999 FEW012 05/05 Q1024 TEMPO BKN006

TAF TAF LFLX
Valid from the 20 at 00:00 until the 21 at 06:00 UTC


192300Z 2000/2106 21008KT 9999 BKN025
TEMPO 2001/2007 BKN006
BECMG 2012/2014 24015G25KT
TEMPO 2019/2022 22020G38KT 3000 RA BKN012
BECMG 2022/2024 26006KT CAVOK
BECMG 2100/2102 3000 BR
PROB40
TEMPO 2102/2106 0400 FG VV///



MET'MAP, your aeronautical weather chart ! - Copyright ORBIFLY December 2007 - Disclaimer

ORBIFLY MET'MAP TEAM :

Programming & Development : Alexandra Zaïnal
Concept & original design : Baudouin d'Aumeries
Assistance for programming : Marc-Olivier Méhu
Technical & hardware support : Manuel Goepfert

Contact : metmap@orbifly.com




SOURCES & CREDITS :

   NOAA